SPECI KIGX 200003Z AUTO 00000KT 3SM BR BKN002 OVC050 00/00 A3013 RMK AO2 
METAR KIGX 192356Z AUTO 30003KT 2 1/2SM BR BKN002 OVC050 00/00 A3013 RMK AO2 SNE26 SLP203 P0001 60024 T00000000 10006 20000 55008 
SPECI KIGX 192329Z AUTO 00000KT 2SM BR OVC002 00/00 A3011 RMK AO2 SNE26 P0001 
SPECI KIGX 192311Z AUTO 00000KT 1 3/4SM -SN BR BKN002 OVC009 00/00 A3012 RMK AO2 P0001 
SPECI KIGX 192303Z AUTO 00000KT 1 3/4SM -SN BR SCT004 OVC011 00/00 A3011 RMK AO2 P0001 
METAR KIGX 192256Z AUTO 00000KT 1 1/2SM -SN BR BKN013 01/01 A3012 RMK AO2 SLP200 P0004 T00060006 
SPECI KIGX 192241Z AUTO 00000KT 1 3/4SM -SN BR OVC015 01/01 A3011 RMK AO2 P0003 
SPECI KIGX 192231Z AUTO 00000KT 2SM -SN BR FEW001 OVC015 01/01 A3012 RMK AO2 P0002 
SPECI KIGX 192228Z AUTO 00000KT 1 3/4SM -SN BR FEW001 OVC013 01/01 A3012 RMK AO2 P0002 
METAR KIGX 192156Z AUTO 00000KT 1SM -SN BR FEW004 BKN007 01/01 A3013 RMK AO2 SLP205 P0005 T00060006 
SPECI KIGX 192148Z AUTO 00000KT 1SM -SN BR SCT004 BKN007 00/00 A3013 RMK AO2 P0004 
SPECI KIGX 192132Z AUTO 00000KT 3/4SM -SN BR BKN004 OVC007 00/00 A3013 RMK AO2 P0003 
SPECI KIGX 192132Z AUTO 00000KT 3/4SM -SN BR BKN004 OVC007 00/00 A3013 RMK AO2 P0003 
SPECI KIGX 192108Z AUTO 00000KT 1/2SM SN FG OVC007 00/00 A3014 RMK AO2 P0001 
METAR KIGX 192056Z AUTO 00000KT 1/2SM SN FG BKN002 OVC009 01/01 A3015 RMK AO2 SLP211 P0006 60014 T00060006 56008 
SPECI KIGX 192036Z AUTO 00000KT 3/4SM -SN BR OVC002 01/01 A3015 RMK AO2 PRESRR P0003 
METAR KIGX 191956Z AUTO 00000KT 1/2SM SN FG OVC004 01/01 A3016 RMK AO2 SLP213 P0004 T00060006 
SPECI KIGX 191936Z AUTO 00000KT 3/4SM -SN BR OVC004 01/01 A3016 RMK AO2 P0002 
METAR KIGX 191856Z AUTO 00000KT 1 1/4SM -SN BR BKN002 OVC009 01/01 A3014 RMK AO2 SLP209 P0004 T00060006 
SPECI KIGX 191833Z AUTO 04003KT 1SM -SN BR OVC002 00/00 A3013 RMK AO2 PRESFR P0003 
METAR KIGX 191756Z AUTO 00000KT 1/4SM +SN FG BKN002 OVC007 01/01 A3017 RMK AO2 SLP219 P0007 60022 T00060006 10050 20000 58017 
SPECI KIGX 191706Z AUTO 00000KT 1/2SM SN FG OVC004 01/01 A3021 RMK AO2 P0001 
METAR KIGX 191656Z AUTO 00000KT 3/4SM -SN BR OVC004 01/01 A3021 RMK AO2 SLP231 P0006 T00060006 
SPECI KIGX 191639Z AUTO 00000KT 1 3/4SM -SN BR OVC004 01/01 A3022 RMK AO2 P0003 
SPECI KIGX 191631Z AUTO 05003KT 2SM -SN BR BKN004 OVC010 01/01 A3020 RMK AO2 P0002 
METAR KIGX 191556Z AUTO 00000KT 2SM -SN BR BKN008 BKN014 01/01 A3024 RMK AO2 RAE28SNB28 SLP243 P0007 T00110011 
SPECI KIGX 191549Z AUTO 00000KT 1 3/4SM -SN BR BKN008 BKN014 01/01 A3024 RMK AO2 RAE28SNB28 P0006 
SPECI KIGX 191542Z AUTO 03003KT 2 1/2SM -SN BR SCT010 BKN014 01/01 A3023 RMK AO2 RAE28SNB28 P0005 
METAR KIGX 191456Z AUTO 06004KT 7SM -RA FEW013 03/01 A3022 RMK AO2 SLP236 P0002 60002 T00280011 53010 
SPECI KIGX 191439Z AUTO VRB04KT 9SM -RA SCT019 04/01 A3022 RMK AO2 P0001 
SPECI KIGX 191416Z AUTO 05005KT 10SM -RA BKN021 04/M01 A3022 RMK AO2 P0000 
METAR KIGX 191356Z AUTO 02003KT 10SM -RA SCT033 05/M02 A3019 RMK AO2 RAB47 SLP225 P0000 T00501017 
METAR KIGX 191256Z AUTO 00000KT 10SM SCT065 04/M02 A3017 RMK AO2 SLP216 T00441017 
METAR KIGX 191156Z AUTO 00000KT 10SM SCT045 OVC065 04/M01 A3019 RMK AO2 SLP225 T00391006 10044 20033 53005 
METAR KIGX 191056Z AUTO 31003KT 10SM SCT070 04/M01 A3015 RMK AO2 SLP212 T00391011 
METAR KIGX 190956Z AUTO 28004KT 10SM SCT075 BKN090 04/M01 A3017 RMK AO2 SLP218 T00391011 
METAR KIGX 190856Z AUTO 27003KT 10SM OVC085 04/M01 A3018 RMK AO2 SLP220 T00391011 51001 
METAR KIGX 190756Z AUTO 00000KT 10SM FEW090 04/M01 A3018 RMK AO2 SLP220 T00391011 
METAR KIGX 190656Z AUTO VRB03KT 10SM BKN090 04/M02 A3018 RMK AO2 SLP219 T00391017 
METAR KIGX 190556Z AUTO 00000KT 10SM CLR 04/M01 A3017 RMK AO2 SLP218 T00391011 10044 20033 53003 
METAR KIGX 190456Z AUTO 00000KT 10SM CLR 03/M01 A3016 RMK AO2 SLP214 T00331011 400611017 
METAR KIGX 190356Z AUTO 00000KT 10SM CLR 04/M02 A3015 RMK AO2 SLP210 T00391017 
METAR KIGX 190356Z AUTO 00000KT 10SM CLR 04/M02 A3015 RMK AO2 SLP210 T00391017 
METAR KIGX 190256Z AUTO 00000KT 10SM CLR 04/M02 A3016 RMK AO2 SLP216 T00391017 56010 
METAR KIGX 190156Z AUTO 00000KT 10SM BKN085 04/M02 A3018 RMK AO2 PRESFR SLP223 T00441022 
METAR KIGX 190056Z AUTO 00000KT 10SM CLR 04/M01 A3016 RMK AO2 SLP216 T00391011 
METAR KIGX 182356Z AUTO 28003KT 10SM CLR 04/M01 A3020 RMK AO2 SLP227 T00391006 10061 20039 53002 
METAR KIGX 182256Z AUTO 00000KT 10SM CLR 04/M02 A3017 RMK AO2 SLP218 T00391017 
METAR KIGX 182156Z AUTO 00000KT 10SM CLR 05/M03 A3018 RMK AO2 SLP222 T00501028 
METAR KIGX 182056Z AUTO VRB03KT 10SM CLR 06/M04 A3019 RMK AO2 SLP225 T00561039 56009 
METAR KIGX 181956Z AUTO 25004KT 10SM CLR 06/M04 A3020 RMK AO2 SLP230 T00561044 
METAR KIGX 181956Z AUTO 25004KT 10SM CLR 06/M04 A3020 RMK AO2 SLP230 T00561044 
METAR KIGX 181856Z AUTO 00000KT 10SM CLR 06/M05 A3020 RMK AO2 SLP228 T00561050 
METAR KIGX 181756Z AUTO 29004KT 10SM CLR 06/M06 A3022 RMK AO2 SLP233 T00611056 10061 21017 58024 
METAR KIGX 181656Z AUTO VRB03KT 10SM CLR 05/M06 A3025 RMK AO2 SLP245 T00501056 
METAR KIGX 181556Z AUTO 01003KT 10SM CLR 04/M06 A3028 RMK AO2 SLP254 T00441056 
METAR KIGX 181456Z AUTO VRB03KT 10SM CLR 04/M06 A3029 RMK AO2 SLP258 T00391056 51011 
METAR KIGX 181356Z AUTO VRB06KT 10SM CLR 03/M06 A3029 RMK AO2 SLP256 T00331056 
METAR KIGX 181256Z AUTO 35005KT 10SM CLR 01/M06 A3027 RMK AO2 SLP251 T00111061 
METAR KIGX 181156Z AUTO 32004KT 10SM CLR M01/M07 A3026 RMK AO2 SLP248 T10111067 10022 21011 53015 
METAR KIGX 181056Z AUTO 33003KT 10SM CLR 00/M06 A3024 RMK AO2 PRESRR SLP241 T00001061 
METAR KIGX 180956Z AUTO 33005KT 10SM CLR 00/M06 A3023 RMK AO2 SLP236 T00001061 
METAR KIGX 180856Z AUTO 34004KT 10SM CLR 01/M06 A3021 RMK AO2 SLP231 T00061061 51016 
METAR KIGX 180756Z AUTO 32004KT 10SM CLR 00/M06 A3021 RMK AO2 SLP230 T00001056 
METAR KIGX 180656Z AUTO 00000KT 10SM CLR 01/M06 A3019 RMK AO2 SLP224 T00111061 
METAR KIGX 180556Z AUTO 33006KT 10SM CLR 02/M06 A3017 RMK AO2 SLP215 T00221061 10089 20022 51022 
METAR KIGX 180456Z AUTO VRB06KT 10SM CLR 04/M07 A3015 RMK AO2 SLP209 T00391067 401280033 
METAR KIGX 180356Z AUTO 34006KT 10SM CLR 05/M06 A3013 RMK AO2 SLP201 T00501056 
METAR KIGX 180256Z AUTO 35005KT 10SM CLR 06/M05 A3010 RMK AO2 SLP192 T00611050 51037 
METAR KIGX 180156Z AUTO 32005KT 10SM CLR 07/M03 A3007 RMK AO2 SLP181 T00671028 
METAR KIGX 180056Z AUTO 00000KT 10SM CLR 07/M02 A3002 RMK AO2 SLP166 T00721022 
METAR KIGX 172356Z AUTO 31006KT 10SM CLR 08/01 A2999 RMK AO2 SLP154 T00780011 10128 20067 53032 
METAR KIGX 172256Z AUTO 30003KT 10SM CLR 08/06 A2994 RMK AO2 SLP139 T00830056 
METAR KIGX 172156Z AUTO 00000KT 10SM CLR 11/03 A2992 RMK AO2 SLP130 T01060033 
METAR KIGX 172056Z AUTO VRB04KT 10SM CLR 12/03 A2989 RMK AO2 SLP121 T01220028 53010 
METAR KIGX 171956Z AUTO 28005KT 10SM CLR 12/04 A2988 RMK AO2 SLP116 T01220039 
METAR KIGX 171856Z AUTO 28005KT 10SM CLR 12/05 A2986 RMK AO2 SLP110 T01220050 
METAR KIGX 171756Z AUTO 29009KT 10SM CLR 13/05 A2986 RMK AO2 SLP111 T01280050 10128 20072 58012 
METAR KIGX 171656Z AUTO VRB05KT 10SM CLR 12/07 A2987 RMK AO2 SLP115 T01220072 
METAR KIGX 171556Z AUTO 29004KT 10SM FEW090 11/08 A2990 RMK AO2 SLP122 T01060083 
METAR KIGX 171456Z AUTO VRB03KT 7SM FEW006 BKN049 BKN080 09/08 A2990 RMK AO2 SLP124 T00940083 50006 
SPECI KIGX 171439Z AUTO VRB03KT 6SM BR SCT006 OVC047 09/08 A2990 RMK AO2 
METAR KIGX 171356Z AUTO 25004KT 4SM BR BKN006 OVC043 08/08 A2991 RMK AO2 SLP127 T00830078 
SPECI KIGX 171346Z AUTO VRB03KT 4SM BR BKN006 OVC043 08/08 A2991 RMK AO2 
METAR KIGX 171256Z AUTO VRB04KT 3SM BR SCT006 OVC043 08/08 A2990 RMK AO2 SLP123 T00780078 
SPECI KIGX 171233Z AUTO 25005KT 3SM BR SCT006 SCT010 OVC043 08/07 A2989 RMK AO2 
SPECI KIGX 171220Z AUTO VRB04KT 3SM BR FEW004 BKN008 OVC037 08/07 A2989 RMK AO2 CIG 006V010 
SPECI KIGX 171210Z AUTO VRB03KT 4SM BR SCT006 BKN010 OVC035 08/07 A2989 RMK AO2 
METAR KIGX 171156Z AUTO 23004KT 5SM BR SCT008 OVC033 07/07 A2988 RMK AO2 RAE05B31E40 SLP118 P0000 60006 70008 T00720072 10083 20072 53008 
METAR KIGX 171056Z AUTO 27003KT 5SM -RA BR OVC006 07/07 A2986 RMK AO2 CIG 003V009 SLP112 P0003 T00720072 
METAR KIGX 170956Z AUTO VRB04KT 3SM -RA BR FEW005 BKN009 OVC022 07/07 A2987 RMK AO2 RAB0858 SLP115 P0002 T00720072 
SPECI KIGX 170941Z AUTO 24004KT 4SM -RA BR FEW009 SCT016 OVC022 07/07 A2987 RMK AO2 RAB0858 P0001 
SPECI KIGX 170932Z AUTO VRB04KT 4SM -RA BR SCT015 BKN020 OVC042 07/07 A2987 RMK AO2 RAB0858 P0001 
METAR KIGX 170856Z AUTO VRB03KT 9SM BKN030 OVC037 08/06 A2986 RMK AO2 SLP110 60001 T00830061 58005 
METAR KIGX 170756Z AUTO VRB05KT 10SM OVC028 08/06 A2987 RMK AO2 RAB00E30 SLP114 P0001 T00780061 
SPECI KIGX 170735Z AUTO VRB04KT 10SM BKN028 BKN090 08/07 A2987 RMK AO2 RAB00E30 P0001 
METAR KIGX 170656Z AUTO VRB04KT 10SM FEW033 SCT070 BKN090 08/06 A2988 RMK AO2 RAB27E50 SLP117 P0000 T00780061 
METAR KIGX 170556Z AUTO 26003KT 10SM FEW095 08/06 A2987 RMK AO2 RAB07E30 SLP115 P0000 60001 T00830056 10083 20072 58028